createdAt,value
2018-08-18T00:00:14.224Z,10.33
2018-08-18T00:02:41.828Z,10.20
2018-08-18T00:05:10.053Z,8.80
2018-08-18T00:07:37.652Z,9.20
2018-08-18T00:10:07.095Z,9.63
2018-08-18T00:12:34.638Z,8.30
2018-08-18T00:15:02.305Z,7.93
2018-08-18T00:17:29.818Z,8.87
2018-08-18T00:19:57.295Z,8.23
2018-08-18T00:22:24.840Z,9.30
2018-08-18T00:24:56.164Z,8.10
2018-08-18T00:27:24.003Z,8.10
2018-08-18T00:29:51.526Z,9.47
2018-08-18T00:32:19.040Z,8.20
2018-08-18T00:34:51.096Z,8.23
2018-08-18T00:37:18.552Z,8.00
2018-08-18T00:39:46.095Z,8.57
2018-08-18T00:42:13.597Z,9.30
2018-08-18T00:44:41.087Z,8.00
2018-08-18T00:47:08.616Z,7.50
2018-08-18T00:49:36.140Z,7.63
2018-08-18T00:52:03.687Z,8.73
2018-08-18T00:54:31.210Z,8.97
2018-08-18T00:57:00.976Z,8.07
2018-08-18T00:59:39.418Z,8.17
2018-08-18T01:02:07.426Z,7.77
2018-08-18T01:04:40.143Z,8.67
2018-08-18T01:07:12.445Z,7.77
2018-08-18T01:09:42.183Z,8.60
2018-08-18T01:12:10.020Z,8.00
2018-08-18T01:14:37.538Z,8.27
2018-08-18T01:17:05.071Z,7.40
2018-08-18T01:19:32.549Z,7.80
2018-08-18T01:22:00.061Z,7.37
2018-08-18T01:24:27.806Z,7.90
2018-08-18T01:26:55.278Z,7.43
2018-08-18T01:29:22.699Z,7.70
2018-08-18T01:31:50.203Z,7.93
2018-08-18T01:34:17.680Z,7.83
2018-08-18T01:36:45.180Z,6.90
2018-08-18T01:39:13.737Z,6.67
2018-08-18T01:41:41.262Z,7.37
2018-08-18T01:44:21.337Z,7.63
2018-08-18T01:46:49.891Z,7.87
2018-08-18T01:49:26.422Z,9.70
2018-08-18T01:51:54.148Z,8.00
2018-08-18T01:54:21.845Z,7.53
2018-08-18T01:56:50.583Z,12.07
2018-08-18T01:59:18.495Z,11.10
2018-08-18T02:01:46.059Z,9.87
2018-08-18T02:04:14.371Z,9.50
2018-08-18T02:06:41.792Z,7.33
2018-08-18T02:09:09.312Z,6.87
2018-08-18T02:11:37.945Z,6.40
2018-08-18T02:14:06.071Z,7.30
2018-08-18T02:16:33.560Z,7.87
2018-08-18T02:19:01.069Z,6.30
2018-08-18T02:21:30.357Z,6.27
2018-08-18T02:24:01.707Z,6.70
2018-08-18T02:26:29.101Z,6.30
2018-08-18T02:28:56.593Z,6.97
2018-08-18T02:31:24.283Z,7.53
2018-08-18T02:33:51.804Z,6.20
2018-08-18T02:36:19.284Z,6.70
2018-08-18T02:39:01.434Z,6.00
2018-08-18T02:41:31.934Z,5.83
2018-08-18T02:43:59.934Z,6.57
2018-08-18T02:46:32.084Z,6.97
2018-08-18T02:49:00.441Z,5.70
2018-08-18T02:51:28.013Z,6.40
2018-08-18T02:53:55.383Z,6.20
2018-08-18T02:56:27.648Z,6.20
2018-08-18T02:59:00.611Z,6.53
2018-08-18T03:01:34.208Z,6.70
2018-08-18T03:13:41.735Z,6.50
2018-08-18T03:16:10.918Z,5.60
2018-08-18T03:18:44.823Z,4.90
2018-08-18T03:21:12.473Z,5.80
2018-08-18T03:23:50.073Z,6.67
2018-08-18T03:26:20.092Z,6.13
2018-08-18T03:28:50.075Z,5.33
2018-08-18T03:31:17.537Z,5.80
2018-08-18T03:33:45.049Z,5.17
2018-08-18T03:36:25.558Z,5.20
2018-08-18T03:38:54.328Z,4.83
2018-08-18T03:41:22.738Z,5.47
2018-08-18T03:43:50.884Z,5.30
2018-08-18T03:46:18.530Z,5.90
2018-08-18T03:48:46.158Z,6.53
2018-08-18T03:51:13.612Z,5.70
2018-08-18T03:53:41.138Z,5.70
2018-08-18T03:56:08.522Z,4.87
2018-08-18T03:58:48.364Z,5.47
2018-08-18T04:01:16.735Z,6.73
2018-08-18T04:03:44.181Z,6.60
2018-08-18T04:06:11.635Z,5.67
2018-08-18T04:08:39.121Z,5.77
2018-08-18T04:11:06.658Z,6.00
2018-08-18T04:13:34.184Z,5.70
2018-08-18T04:16:01.696Z,5.07
2018-08-18T04:18:29.374Z,5.70
2018-08-18T04:20:56.897Z,6.00
2018-08-18T04:23:24.469Z,5.90
2018-08-18T04:25:52.080Z,6.50
2018-08-18T04:28:19.561Z,5.80
2018-08-18T04:30:47.017Z,5.60
2018-08-18T04:33:14.435Z,6.30
2018-08-18T04:35:46.484Z,5.80
2018-08-18T04:38:13.856Z,6.00
2018-08-18T04:40:41.329Z,5.90
2018-08-18T04:43:08.877Z,4.77
2018-08-18T04:45:36.349Z,5.30
2018-08-18T04:48:04.004Z,5.30
2018-08-18T04:50:31.494Z,4.60
2018-08-18T04:52:59.011Z,5.50
2018-08-18T04:55:26.522Z,4.70
2018-08-18T04:57:53.909Z,4.97
2018-08-18T05:00:21.333Z,5.27
2018-08-18T05:02:54.430Z,7.20
2018-08-18T05:05:26.035Z,6.47
2018-08-18T05:07:53.490Z,8.70
2018-08-18T05:10:21.162Z,7.57
2018-08-18T05:12:48.668Z,6.37
2018-08-18T05:15:17.276Z,7.87
2018-08-18T05:17:44.992Z,5.97
2018-08-18T05:20:13.633Z,5.60
2018-08-18T05:22:41.380Z,4.70
2018-08-18T05:25:08.824Z,5.23
2018-08-18T05:27:36.325Z,5.60
2018-08-18T05:30:03.993Z,5.70
2018-08-18T05:32:31.540Z,6.07
2018-08-18T05:34:58.962Z,5.57
2018-08-18T05:37:26.461Z,6.23
2018-08-18T05:39:53.976Z,4.60
2018-08-18T05:42:21.523Z,4.90
2018-08-18T05:44:49.246Z,5.33
2018-08-18T05:47:16.766Z,5.53
2018-08-18T05:49:44.174Z,4.97
2018-08-18T05:52:11.652Z,4.70
2018-08-18T05:54:39.168Z,4.70
2018-08-18T05:57:06.814Z,4.50
2018-08-18T05:59:34.759Z,4.40
2018-08-18T06:02:02.349Z,3.90
2018-08-18T06:04:29.851Z,4.77
2018-08-18T06:06:57.372Z,4.60
2018-08-18T06:09:24.881Z,4.60
2018-08-18T06:11:52.540Z,4.70
2018-08-18T06:14:20.150Z,5.57
2018-08-18T06:16:47.798Z,4.50
2018-08-18T06:19:15.423Z,5.40
2018-08-18T06:21:42.969Z,4.60
2018-08-18T06:24:10.641Z,4.40
2018-08-18T06:26:38.180Z,4.70
2018-08-18T06:29:05.792Z,4.43
2018-08-18T06:31:34.833Z,3.80
2018-08-18T06:34:02.344Z,5.30
2018-08-18T06:36:29.836Z,4.10
2018-08-18T06:38:57.305Z,4.93
2018-08-18T06:41:24.905Z,4.73
2018-08-18T06:43:52.354Z,5.00
2018-08-18T06:46:19.892Z,5.10
2018-08-18T06:48:47.397Z,5.30
2018-08-18T06:51:14.810Z,4.37
2018-08-18T06:53:44.405Z,4.90
2018-08-18T06:56:12.002Z,4.10
2018-08-18T06:58:40.061Z,10.63
2018-08-18T07:01:08.042Z,6.90
2018-08-18T07:03:36.731Z,8.13
2018-08-18T07:06:05.076Z,6.40
2018-08-18T07:08:39.805Z,6.70
2018-08-18T07:11:08.853Z,6.83
2018-08-18T07:13:36.395Z,5.10
2018-08-18T07:16:03.826Z,4.13
2018-08-18T07:18:31.590Z,4.37
2018-08-18T07:20:59.418Z,4.10
2018-08-18T07:23:26.946Z,4.40
2018-08-18T07:25:57.190Z,3.23
2018-08-18T07:28:24.673Z,4.40
2018-08-18T07:30:52.390Z,3.20
2018-08-18T07:33:20.060Z,3.50
2018-08-18T07:35:47.532Z,3.90
2018-08-18T07:38:15.032Z,3.30
2018-08-18T07:40:45.060Z,3.70
2018-08-18T07:43:14.688Z,3.13
2018-08-18T07:45:42.405Z,3.53
2018-08-18T07:48:09.990Z,4.03
2018-08-18T07:50:37.552Z,11.17
2018-08-18T07:53:05.525Z,4.00
2018-08-18T07:55:33.011Z,3.37
2018-08-18T07:58:02.012Z,3.70
2018-08-18T08:00:31.420Z,2.90
2018-08-18T08:02:59.314Z,3.00
2018-08-18T08:05:27.192Z,3.70
2018-08-18T08:07:54.813Z,6.27
2018-08-18T08:10:22.341Z,5.73
2018-08-18T08:12:49.943Z,3.27
2018-08-18T08:15:17.443Z,3.70
2018-08-18T08:17:45.921Z,3.57
2018-08-18T08:20:14.037Z,2.97
2018-08-18T08:22:41.521Z,6.57
2018-08-18T08:25:09.644Z,3.90
2018-08-18T08:27:37.242Z,4.47
2018-08-18T08:30:05.633Z,4.10
2018-08-18T08:32:33.216Z,4.00
2018-08-18T08:35:02.289Z,3.80
2018-08-18T08:37:30.124Z,2.93
2018-08-18T08:39:58.037Z,4.00
2018-08-18T08:42:25.743Z,10.80
2018-08-18T08:44:54.513Z,10.60
2018-08-18T08:47:21.904Z,4.40
2018-08-18T08:49:49.806Z,3.80
2018-08-18T08:52:17.196Z,2.60
2018-08-18T08:54:44.795Z,3.00
2018-08-18T08:57:12.492Z,2.90
2018-08-18T08:59:40.692Z,5.37
2018-08-18T09:02:08.919Z,3.50
2018-08-18T09:04:36.422Z,4.10
2018-08-18T09:07:06.106Z,3.83
2018-08-18T09:09:33.594Z,4.23
2018-08-18T09:12:01.235Z,3.93
2018-08-18T09:14:28.815Z,4.03
2018-08-18T09:16:56.458Z,3.10
2018-08-18T09:19:24.085Z,3.63
2018-08-18T09:21:53.745Z,3.50
2018-08-18T09:24:23.612Z,3.30
2018-08-18T09:26:51.363Z,4.10
2018-08-18T09:29:19.081Z,3.80
2018-08-18T09:31:47.721Z,5.03
2018-08-18T09:34:15.222Z,4.83
2018-08-18T09:36:43.483Z,4.40
2018-08-18T09:39:47.349Z,4.33
2018-08-18T09:42:16.011Z,3.90
2018-08-18T09:44:45.425Z,3.80
2018-08-18T09:47:13.244Z,4.97
2018-08-18T09:49:41.373Z,3.60
2018-08-18T09:52:09.822Z,5.37
2018-08-18T09:54:37.381Z,4.80
2018-08-18T09:57:05.046Z,5.83
2018-08-18T09:59:32.600Z,5.07
2018-08-18T10:02:00.152Z,4.10
2018-08-18T10:04:27.731Z,4.57
2018-08-18T10:06:55.579Z,4.80
2018-08-18T10:09:23.548Z,4.30
2018-08-18T10:11:51.212Z,5.60
2018-08-18T10:14:19.366Z,4.23
2018-08-18T10:16:47.001Z,3.80
2018-08-18T10:19:14.529Z,6.10
2018-08-18T10:21:42.243Z,4.90
2018-08-18T10:24:10.761Z,4.37
2018-08-18T10:26:38.585Z,4.40
2018-08-18T10:29:16.641Z,4.10
2018-08-18T10:31:50.357Z,4.10
2018-08-18T10:34:19.049Z,3.80
2018-08-18T10:36:49.524Z,4.93
2018-08-18T10:39:17.114Z,4.10
2018-08-18T10:41:56.242Z,4.17
2018-08-18T10:44:24.558Z,4.27
2018-08-18T10:47:23.737Z,3.83
2018-08-18T10:50:02.471Z,3.53
2018-08-18T10:52:42.139Z,3.40
2018-08-18T10:55:11.049Z,3.40
2018-08-18T10:57:57.225Z,2.87
2018-08-18T11:00:26.254Z,3.13
2018-08-18T11:02:54.920Z,3.40
2018-08-18T11:05:23.345Z,3.40
2018-08-18T11:07:57.544Z,3.23
2018-08-18T11:10:26.950Z,3.67
2018-08-18T11:12:54.641Z,3.67
2018-08-18T11:15:22.248Z,3.50
2018-08-18T11:17:49.700Z,4.10
2018-08-18T11:20:18.991Z,5.13
2018-08-18T11:22:49.999Z,3.63
2018-08-18T11:25:18.400Z,4.30
2018-08-18T11:27:46.163Z,3.33
2018-08-18T11:30:13.698Z,3.97
2018-08-18T11:32:41.298Z,4.27
2018-08-18T11:35:09.021Z,3.10
2018-08-18T11:37:51.129Z,3.50
2018-08-18T11:40:19.327Z,2.93
2018-08-18T11:42:46.894Z,3.53
2018-08-18T11:45:14.392Z,3.60
2018-08-18T11:47:46.532Z,3.30
2018-08-18T11:50:14.144Z,3.80
2018-08-18T11:52:46.402Z,3.13
2018-08-18T11:55:13.918Z,3.50
2018-08-18T11:57:41.887Z,3.53
2018-08-18T12:00:09.345Z,3.93
2018-08-18T12:02:36.884Z,3.33
2018-08-18T12:05:04.606Z,3.70
2018-08-18T12:07:32.146Z,3.27
2018-08-18T12:09:59.716Z,3.40
2018-08-18T12:12:27.240Z,3.53
2018-08-18T12:14:54.730Z,3.30
2018-08-18T12:17:22.252Z,3.93
2018-08-18T12:19:53.124Z,3.07
2018-08-18T12:22:20.790Z,3.13
2018-08-18T12:24:52.960Z,4.07
2018-08-18T12:27:20.373Z,4.30
2018-08-18T12:29:47.872Z,3.03
2018-08-18T12:32:20.711Z,3.77
2018-08-18T12:34:48.174Z,4.03
2018-08-18T12:37:15.784Z,3.83
2018-08-18T12:39:43.260Z,3.27
2018-08-18T12:42:15.367Z,3.43
2018-08-18T12:44:43.610Z,3.10
2018-08-18T12:47:11.134Z,2.90
2018-08-18T12:49:38.849Z,3.40
2018-08-18T12:52:06.290Z,3.67
2018-08-18T12:54:33.926Z,3.10
2018-08-18T12:57:01.633Z,3.30
2018-08-18T12:59:29.243Z,3.50
2018-08-18T13:01:56.860Z,4.10
2018-08-18T13:04:24.459Z,3.70
2018-08-18T13:06:53.050Z,4.20
2018-08-18T13:09:21.975Z,3.63
2018-08-18T13:11:50.969Z,3.83
2018-08-18T13:14:22.849Z,4.20
2018-08-18T13:16:50.436Z,4.27
2018-08-18T13:19:19.231Z,5.60
2018-08-18T13:21:46.781Z,4.60
2018-08-18T13:24:15.963Z,5.17
2018-08-18T13:26:43.663Z,5.60
2018-08-18T13:29:11.181Z,4.27
2018-08-18T13:31:42.695Z,3.20
2018-08-18T13:34:11.789Z,4.97
2018-08-18T13:36:40.452Z,4.80
2018-08-18T13:39:11.632Z,4.00
2018-08-18T13:41:39.261Z,3.50
2018-08-18T13:44:06.831Z,3.37
2018-08-18T13:46:39.968Z,3.90
2018-08-18T13:49:07.696Z,3.13
2018-08-18T13:51:35.098Z,3.27
2018-08-18T13:54:03.288Z,3.40
2018-08-18T13:56:31.006Z,3.00
2018-08-18T13:58:58.552Z,3.70
2018-08-18T14:01:33.415Z,2.67
2018-08-18T14:04:01.004Z,3.50
2018-08-18T14:06:28.689Z,2.67
2018-08-18T14:08:59.877Z,2.73
2018-08-18T14:11:27.821Z,3.93
2018-08-18T14:13:55.580Z,2.83
2018-08-18T14:16:23.111Z,3.20
2018-08-18T14:18:50.512Z,2.73
2018-08-18T14:21:18.064Z,3.43
2018-08-18T14:23:45.619Z,3.07
2018-08-18T14:26:13.251Z,3.20
2018-08-18T14:28:40.894Z,3.17
2018-08-18T14:31:08.533Z,3.23
2018-08-18T14:33:36.167Z,3.60
2018-08-18T14:36:09.171Z,2.87
2018-08-18T14:38:36.833Z,2.87
2018-08-18T14:41:04.783Z,2.90
2018-08-18T14:43:36.755Z,2.80
2018-08-18T14:46:06.627Z,3.00
2018-08-18T14:48:34.250Z,3.10
2018-08-18T14:51:01.767Z,3.03
2018-08-18T14:53:29.232Z,3.50
2018-08-18T14:55:56.790Z,3.57
2018-08-18T14:58:29.868Z,3.00
2018-08-18T15:01:02.872Z,2.80
2018-08-18T15:03:30.455Z,2.90
2018-08-18T15:05:58.122Z,3.00
2018-08-18T15:08:26.366Z,3.23
2018-08-18T15:10:54.726Z,3.20
2018-08-18T15:13:22.140Z,3.87
2018-08-18T15:15:49.721Z,3.10
2018-08-18T15:18:17.641Z,3.30
2018-08-18T15:20:45.726Z,4.27
2018-08-18T15:23:14.191Z,3.30
2018-08-18T15:25:42.367Z,3.90
2018-08-18T15:28:10.914Z,3.10
2018-08-18T15:30:40.591Z,3.30
2018-08-18T15:33:09.585Z,3.33
2018-08-18T15:35:39.982Z,3.53
2018-08-18T15:38:08.540Z,2.90
2018-08-18T15:40:36.109Z,3.40
2018-08-18T15:43:04.211Z,4.47
2018-08-18T15:45:34.145Z,3.50
2018-08-18T15:48:02.881Z,3.90
2018-08-18T15:50:30.428Z,3.33
2018-08-18T15:52:57.926Z,3.53
2018-08-18T15:55:25.453Z,3.17
2018-08-18T15:57:53.068Z,3.53
2018-08-18T16:00:33.531Z,2.53
2018-08-18T16:03:01.099Z,3.63
2018-08-18T16:06:53.091Z,3.93
2018-08-18T16:09:20.579Z,3.67
2018-08-18T16:11:48.033Z,3.63
2018-08-18T16:14:15.584Z,3.87
2018-08-18T16:16:59.620Z,3.23
2018-08-18T16:19:30.718Z,9.57
2018-08-18T16:21:58.329Z,4.20
2018-08-18T16:24:42.436Z,3.40
2018-08-18T16:27:09.996Z,4.17
2018-08-18T16:29:37.916Z,3.77
2018-08-18T16:32:16.379Z,4.70
2018-08-18T16:34:45.351Z,4.73
2018-08-18T16:37:12.895Z,4.20
2018-08-18T16:39:41.241Z,3.67
2018-08-18T16:42:09.397Z,3.30
2018-08-18T16:44:37.004Z,3.70
2018-08-18T16:47:05.463Z,3.60
2018-08-18T16:49:33.158Z,2.97
2018-08-18T16:52:00.880Z,3.87
2018-08-18T16:54:31.440Z,2.80
2018-08-18T16:56:59.362Z,2.93
2018-08-18T16:59:27.209Z,3.40
2018-08-18T17:01:54.736Z,4.00
2018-08-18T17:04:27.579Z,5.03
2018-08-18T17:06:55.399Z,4.20
2018-08-18T17:09:34.579Z,5.33
2018-08-18T17:12:22.078Z,9.03
2018-08-18T17:14:49.616Z,6.23
2018-08-18T17:17:17.573Z,4.80
2018-08-18T17:19:45.057Z,4.50
2018-08-18T17:22:13.720Z,4.23
2018-08-18T17:24:41.262Z,4.57
2018-08-18T17:27:08.773Z,4.70
2018-08-18T17:29:40.568Z,5.30
2018-08-18T17:32:08.810Z,11.60
2018-08-18T17:34:36.438Z,5.13
2018-08-18T17:37:04.305Z,3.60
2018-08-18T17:39:31.797Z,4.50
2018-08-18T17:41:59.424Z,4.53
2018-08-18T17:44:27.780Z,4.50
2018-08-18T17:46:55.758Z,4.33
2018-08-18T17:49:24.638Z,5.13
2018-08-18T17:52:05.974Z,4.50
2018-08-18T17:54:34.260Z,3.63
2018-08-18T17:57:02.262Z,3.50
2018-08-18T17:59:30.397Z,4.93
2018-08-18T18:01:58.623Z,4.03
2018-08-18T18:04:27.772Z,4.63
2018-08-18T18:06:55.657Z,3.87
2018-08-18T18:09:23.273Z,3.23
2018-08-18T18:11:51.277Z,3.70
2018-08-18T18:14:18.803Z,3.63
2018-08-18T18:16:46.547Z,3.90
2018-08-18T18:19:13.981Z,4.03
2018-08-18T18:25:11.784Z,4.23
2018-08-18T18:27:39.363Z,4.40
2018-08-18T18:30:06.829Z,4.10
2018-08-18T18:32:34.385Z,3.70
2018-08-18T18:35:02.050Z,4.20
2018-08-18T18:37:30.686Z,3.37
2018-08-18T18:40:01.364Z,4.43
2018-08-18T18:42:28.923Z,4.27
2018-08-18T18:44:57.717Z,3.90
2018-08-18T18:47:25.230Z,4.60
2018-08-18T18:49:52.793Z,3.67
2018-08-18T18:52:20.458Z,4.43
2018-08-18T18:54:48.439Z,3.50
2018-08-18T18:57:16.323Z,4.20
2018-08-18T18:59:49.551Z,3.40
2018-08-18T19:02:17.951Z,3.77
2018-08-18T19:04:45.490Z,3.60
2018-08-18T19:07:13.181Z,4.30
2018-08-18T19:09:40.670Z,3.60
2018-08-18T19:12:08.269Z,3.70
2018-08-18T19:14:35.831Z,3.53
2018-08-18T19:17:03.467Z,3.83
2018-08-18T19:19:31.056Z,3.50
2018-08-18T19:21:58.605Z,2.90
2018-08-18T19:24:26.501Z,3.70
2018-08-18T19:26:57.126Z,3.40
2018-08-18T19:29:25.880Z,3.10
2018-08-18T19:31:56.242Z,4.27
2018-08-18T19:34:23.835Z,3.80
2018-08-18T19:36:59.632Z,3.57
2018-08-18T19:39:28.406Z,3.20
2018-08-18T19:42:03.697Z,3.87
2018-08-18T19:44:31.196Z,3.73
2018-08-18T19:46:58.752Z,3.97
2018-08-18T19:49:36.211Z,3.73
2018-08-18T19:52:11.652Z,4.43
2018-08-18T19:54:41.157Z,4.60
2018-08-18T19:57:08.992Z,4.90
2018-08-18T19:59:36.510Z,4.37
2018-08-18T20:02:03.996Z,3.87
2018-08-18T20:04:31.492Z,3.33
2018-08-18T20:06:59.064Z,4.00
2018-08-18T20:09:26.548Z,4.80
2018-08-18T20:11:54.012Z,3.93
2018-08-18T20:14:21.523Z,3.87
2018-08-18T20:16:49.077Z,3.97
2018-08-18T20:19:16.519Z,3.50
2018-08-18T20:21:44.061Z,3.50
2018-08-18T20:24:11.674Z,4.10
2018-08-18T20:26:39.202Z,4.37
2018-08-18T20:29:06.668Z,3.40
2018-08-18T20:31:34.414Z,3.27
2018-08-18T20:34:01.879Z,3.77
2018-08-18T20:36:29.420Z,4.40
2018-08-18T20:38:57.883Z,3.97
2018-08-18T20:41:25.389Z,3.97
2018-08-18T20:43:52.882Z,3.93
2018-08-18T20:46:20.367Z,4.07
2018-08-18T20:48:47.875Z,4.33
2018-08-18T20:51:19.925Z,4.10
2018-08-18T20:53:47.416Z,3.60
2018-08-18T20:56:14.801Z,4.40
2018-08-18T20:58:42.368Z,4.03
2018-08-18T21:01:09.840Z,3.50
2018-08-18T21:03:47.005Z,3.60
2018-08-18T21:06:15.612Z,3.63
2018-08-18T21:08:43.236Z,3.83
2018-08-18T21:11:10.784Z,3.43
2018-08-18T21:13:38.830Z,3.93
2018-08-18T21:16:06.950Z,3.10
2018-08-18T21:18:34.491Z,3.73
2018-08-18T21:21:07.593Z,3.17
2018-08-18T21:23:35.088Z,3.90
2018-08-18T21:26:02.681Z,3.33
2018-08-18T21:28:30.200Z,3.43
2018-08-18T21:30:57.791Z,3.50
2018-08-18T21:33:25.314Z,2.90
2018-08-18T21:35:52.975Z,3.53
2018-08-18T21:38:20.576Z,3.60
2018-08-18T21:40:48.093Z,3.13
2018-08-18T21:43:27.067Z,3.07
2018-08-18T21:45:54.976Z,3.27
2018-08-18T21:48:32.971Z,4.60
2018-08-18T21:51:00.660Z,3.40
2018-08-18T21:53:28.231Z,3.53
2018-08-18T21:55:55.680Z,3.50
2018-08-18T21:58:23.293Z,3.00
2018-08-18T22:00:51.026Z,3.63
2018-08-18T22:03:18.713Z,2.97
2018-08-18T22:05:46.286Z,3.20
2018-08-18T22:08:13.733Z,3.57
2018-08-18T22:10:48.094Z,3.43
2018-08-18T22:13:15.718Z,3.70
2018-08-18T22:15:43.151Z,3.50
2018-08-18T22:18:10.929Z,3.30
2018-08-18T22:20:38.347Z,2.73
2018-08-18T22:23:06.982Z,3.53
2018-08-18T22:25:34.642Z,3.90
2018-08-18T22:28:02.311Z,2.90
2018-08-18T22:30:29.889Z,3.20
2018-08-18T22:32:57.487Z,3.40
2018-08-18T22:35:25.156Z,3.37
2018-08-18T22:37:52.711Z,3.97
2018-08-18T22:40:20.282Z,2.97
2018-08-18T22:42:47.882Z,3.03
2018-08-18T22:45:23.029Z,2.67
2018-08-18T22:47:50.549Z,3.40
2018-08-18T22:50:18.148Z,3.20
2018-08-18T22:52:49.523Z,3.10
2018-08-18T22:55:17.346Z,3.83
2018-08-18T22:57:52.272Z,4.47
2018-08-18T23:00:20.369Z,3.20
2018-08-18T23:02:48.394Z,2.93
2018-08-18T23:05:17.340Z,3.67
2018-08-18T23:07:44.990Z,3.73
2018-08-18T23:10:12.621Z,3.20
2018-08-18T23:12:40.168Z,3.43
2018-08-18T23:15:07.792Z,2.87
2018-08-18T23:17:35.454Z,3.23
2018-08-18T23:20:02.903Z,3.50
2018-08-18T23:22:46.568Z,4.27
2018-08-18T23:25:14.061Z,2.80
2018-08-18T23:27:41.603Z,2.90
2018-08-18T23:30:09.548Z,4.23
2018-08-18T23:32:38.014Z,5.00
2018-08-18T23:35:05.487Z,9.03
2018-08-18T23:37:32.924Z,8.90
2018-08-18T23:40:00.480Z,9.90
2018-08-18T23:42:28.048Z,4.80
2018-08-18T23:44:55.578Z,3.93
2018-08-18T23:47:23.486Z,4.00
2018-08-18T23:49:51.089Z,3.57
2018-08-18T23:52:18.811Z,3.50
2018-08-18T23:54:46.444Z,4.10
2018-08-18T23:57:16.324Z,3.80
2018-08-18T23:59:44.276Z,3.57
